createdAt,value
2018-06-14T00:00:42.785Z,12.83
2018-06-14T00:01:42.776Z,12.72
2018-06-14T00:02:42.758Z,12.71
2018-06-14T00:03:42.737Z,12.64
2018-06-14T00:04:42.871Z,12.54
2018-06-14T00:05:42.722Z,12.50
2018-06-14T00:06:42.705Z,12.57
2018-06-14T00:07:42.712Z,12.56
2018-06-14T00:08:42.729Z,12.54
2018-06-14T00:09:42.693Z,12.57
2018-06-14T00:10:42.658Z,12.56
2018-06-14T00:11:42.680Z,12.53
2018-06-14T00:12:42.632Z,12.56
2018-06-14T00:13:42.650Z,12.54
2018-06-14T00:14:42.608Z,12.54
2018-06-14T00:15:42.591Z,12.54
2018-06-14T00:16:42.622Z,12.49
2018-06-14T00:17:42.614Z,12.56
2018-06-14T00:18:42.568Z,12.56
2018-06-14T00:19:42.547Z,12.56
2018-06-14T00:20:42.541Z,12.57
2018-06-14T00:21:42.580Z,12.64
2018-06-14T00:22:42.521Z,12.64
2018-06-14T00:23:42.509Z,12.65
2018-06-14T00:24:42.505Z,12.74
2018-06-14T00:25:42.476Z,12.72
2018-06-14T00:26:42.469Z,12.71
2018-06-14T00:27:42.493Z,12.72
2018-06-14T00:28:42.435Z,12.64
2018-06-14T00:29:42.427Z,12.65
2018-06-14T00:30:42.419Z,12.70
2018-06-14T00:31:42.408Z,12.68
2018-06-14T00:32:42.461Z,12.68
2018-06-14T00:33:42.382Z,12.65
2018-06-14T00:34:42.371Z,12.67
2018-06-14T00:35:42.347Z,12.65
2018-06-14T00:36:42.344Z,12.62
2018-06-14T00:37:42.327Z,12.62
2018-06-14T00:38:42.367Z,12.57
2018-06-14T00:39:42.315Z,12.49
2018-06-14T00:40:42.308Z,12.49
2018-06-14T00:41:42.291Z,12.57
2018-06-14T00:42:42.265Z,12.54
2018-06-14T00:43:42.331Z,12.50
2018-06-14T00:44:42.239Z,12.47
2018-06-14T00:45:42.235Z,12.59
2018-06-14T00:46:42.217Z,12.56
2018-06-14T00:47:42.198Z,12.53
2018-06-14T00:48:42.194Z,12.49
2018-06-14T00:49:42.915Z,12.50
2018-06-14T00:50:42.160Z,12.53
2018-06-14T00:51:42.165Z,12.50
2018-06-14T00:52:42.187Z,12.57
2018-06-14T00:53:42.140Z,12.57
2018-06-14T00:54:42.120Z,12.54
2018-06-14T00:55:42.104Z,12.60
2018-06-14T00:56:42.089Z,12.56
2018-06-14T00:57:42.083Z,12.59
2018-06-14T00:58:42.100Z,12.62
2018-06-14T00:59:42.051Z,12.62
2018-06-14T01:00:42.051Z,12.57
2018-06-14T01:01:42.033Z,12.57
2018-06-14T01:02:42.049Z,12.57
2018-06-14T01:03:42.000Z,12.54
2018-06-14T01:04:42.001Z,12.50
2018-06-14T01:05:41.980Z,12.37
2018-06-14T01:06:41.969Z,12.39
2018-06-14T01:07:41.955Z,12.38
2018-06-14T01:08:41.947Z,12.38
2018-06-14T01:09:41.946Z,12.41
2018-06-14T01:10:41.932Z,12.37
2018-06-14T01:11:41.910Z,12.39
2018-06-14T01:12:41.902Z,12.35
2018-06-14T01:13:41.895Z,12.37
2018-06-14T01:14:41.879Z,12.35
2018-06-14T01:15:41.889Z,12.38
2018-06-14T01:16:41.848Z,12.35
2018-06-14T01:17:41.837Z,12.35
2018-06-14T01:18:41.834Z,12.37
2018-06-14T01:19:41.808Z,12.29
2018-06-14T01:20:41.851Z,12.17
2018-06-14T01:21:41.784Z,12.20
2018-06-14T01:22:41.774Z,12.20
2018-06-14T01:23:41.769Z,12.13
2018-06-14T01:24:41.743Z,12.13
2018-06-14T01:25:41.739Z,12.16
2018-06-14T01:26:41.801Z,12.10
2018-06-14T01:27:41.704Z,12.17
2018-06-14T01:28:41.706Z,12.17
2018-06-14T01:29:41.688Z,12.20
2018-06-14T01:30:41.673Z,12.21
2018-06-14T01:31:41.650Z,12.23
2018-06-14T01:32:41.655Z,12.19
2018-06-14T01:33:41.641Z,12.20
2018-06-14T01:34:41.630Z,12.28
2018-06-14T01:35:41.618Z,12.21
2018-06-14T01:36:41.597Z,12.23
2018-06-14T01:37:41.654Z,12.21
2018-06-14T01:38:41.569Z,12.17
2018-06-14T01:39:41.555Z,12.24
2018-06-14T01:40:41.548Z,12.24
2018-06-14T01:41:41.580Z,12.27
2018-06-14T01:42:41.520Z,12.21
2018-06-14T01:43:41.951Z,12.17
2018-06-14T01:44:41.496Z,12.24
2018-06-14T01:45:41.486Z,12.27
2018-06-14T01:46:41.473Z,12.27
2018-06-14T01:47:41.593Z,12.27
2018-06-14T01:48:41.450Z,12.29
2018-06-14T01:49:41.450Z,12.29
2018-06-14T01:50:41.419Z,12.20
2018-06-14T01:51:41.407Z,12.20
2018-06-14T01:52:41.392Z,12.17
2018-06-14T01:53:41.382Z,12.14
2018-06-14T01:54:41.474Z,12.13
2018-06-14T01:55:41.364Z,12.07
2018-06-14T01:56:41.348Z,12.09
2018-06-14T01:57:41.334Z,12.05
2018-06-14T01:58:41.324Z,11.95
2018-06-14T01:59:41.346Z,11.94
2018-06-14T02:00:41.382Z,11.95
2018-06-14T02:01:41.318Z,11.98
2018-06-14T02:02:41.294Z,11.90
2018-06-14T02:03:41.262Z,11.91
2018-06-14T02:04:41.253Z,11.82
2018-06-14T02:05:41.276Z,11.94
2018-06-14T02:06:41.221Z,11.95
2018-06-14T02:07:41.205Z,11.99
2018-06-14T02:08:41.198Z,11.96
2018-06-14T02:09:41.188Z,11.99
2018-06-14T02:10:41.300Z,11.98
2018-06-14T02:11:41.156Z,11.98
2018-06-14T02:12:41.147Z,11.94
2018-06-14T02:13:41.143Z,12.01
2018-06-14T02:14:41.135Z,11.99
2018-06-14T02:15:41.112Z,11.98
2018-06-14T02:16:41.098Z,11.99
2018-06-14T02:17:41.107Z,12.07
2018-06-14T02:18:41.071Z,12.10
2018-06-14T02:19:41.060Z,12.02
2018-06-14T02:20:41.042Z,11.95
2018-06-14T02:21:41.028Z,12.10
2018-06-14T02:22:41.085Z,12.13
2018-06-14T02:23:41.020Z,11.96
2018-06-14T02:24:41.020Z,12.05
2018-06-14T02:25:40.990Z,12.05
2018-06-14T02:26:41.000Z,12.04
2018-06-14T02:27:41.006Z,12.02
2018-06-14T02:28:40.954Z,12.02
2018-06-14T02:29:40.930Z,12.09
2018-06-14T02:30:41.019Z,12.07
2018-06-14T02:31:40.975Z,12.10
2018-06-14T02:32:40.895Z,12.04
2018-06-14T02:33:40.949Z,12.12
2018-06-14T02:34:40.875Z,12.04
2018-06-14T02:35:40.853Z,12.09
2018-06-14T02:36:40.842Z,12.09
2018-06-14T02:37:40.834Z,12.09
2018-06-14T02:38:40.835Z,11.99
2018-06-14T02:39:40.814Z,12.04
2018-06-14T02:40:40.778Z,11.98
2018-06-14T02:41:40.775Z,11.99
2018-06-14T02:42:40.867Z,11.99
2018-06-14T02:43:40.772Z,11.99
2018-06-14T02:44:41.086Z,11.95
2018-06-14T02:45:40.725Z,11.98
2018-06-14T02:46:40.713Z,11.99
2018-06-14T02:47:40.698Z,11.99
2018-06-14T02:48:40.696Z,11.96
2018-06-14T02:49:40.684Z,11.95
2018-06-14T02:50:40.692Z,11.94
2018-06-14T02:51:40.642Z,11.94
2018-06-14T02:52:40.668Z,11.98
2018-06-14T02:53:40.622Z,11.94
2018-06-14T02:54:40.628Z,11.94
2018-06-14T02:55:40.716Z,11.96
2018-06-14T02:56:40.617Z,11.99
2018-06-14T02:57:40.575Z,11.99
2018-06-14T02:58:40.554Z,11.99
2018-06-14T02:59:40.547Z,11.94
2018-06-14T03:00:40.523Z,11.96
2018-06-14T03:01:40.532Z,12.01
2018-06-14T03:02:40.519Z,11.98
2018-06-14T03:03:40.529Z,12.01
2018-06-14T03:04:40.488Z,11.94
2018-06-14T03:05:40.702Z,11.91
2018-06-14T03:06:40.495Z,11.80
2018-06-14T03:07:40.453Z,11.91
2018-06-14T03:08:40.659Z,11.85
2018-06-14T03:09:40.427Z,11.85
2018-06-14T03:10:40.419Z,11.94
2018-06-14T03:11:40.433Z,11.85
2018-06-14T03:12:40.384Z,11.82
2018-06-14T03:13:40.392Z,11.82
2018-06-14T03:14:40.357Z,11.78
2018-06-14T03:15:40.448Z,11.88
2018-06-14T03:16:40.390Z,11.88
2018-06-14T03:17:40.360Z,11.80
2018-06-14T03:18:40.632Z,11.94
2018-06-14T03:19:40.315Z,11.94
2018-06-14T03:20:40.326Z,11.94
2018-06-14T03:21:40.258Z,11.88
2018-06-14T03:22:40.256Z,12.04
2018-06-14T03:23:40.252Z,12.02
2018-06-14T03:24:40.260Z,12.02
2018-06-14T03:25:40.219Z,11.99
2018-06-14T03:26:40.196Z,11.98
2018-06-14T03:27:40.182Z,11.98
2018-06-14T03:28:40.215Z,12.02
2018-06-14T03:29:40.523Z,12.04
2018-06-14T03:30:40.162Z,11.95
2018-06-14T03:31:40.184Z,11.94
2018-06-14T03:32:40.131Z,11.99
2018-06-14T03:33:40.189Z,12.02
2018-06-14T03:34:40.093Z,11.98
2018-06-14T03:35:40.143Z,12.05
2018-06-14T03:36:40.090Z,12.05
2018-06-14T03:37:40.082Z,12.04
2018-06-14T03:38:40.044Z,12.05
2018-06-14T03:39:40.032Z,12.05
2018-06-14T03:40:40.159Z,12.05
2018-06-14T03:41:40.018Z,12.07
2018-06-14T03:42:40.062Z,11.98
2018-06-14T03:43:40.025Z,12.01
2018-06-14T03:44:40.024Z,11.96
2018-06-14T03:45:39.994Z,12.05
2018-06-14T03:46:39.956Z,12.02
2018-06-14T03:47:39.946Z,12.05
2018-06-14T03:48:39.948Z,12.05
2018-06-14T03:49:39.917Z,12.02
2018-06-14T03:50:40.024Z,12.16
2018-06-14T03:51:39.876Z,12.05
2018-06-14T03:52:39.870Z,12.02
2018-06-14T03:53:39.853Z,12.10
2018-06-14T03:54:39.846Z,12.04
2018-06-14T03:55:39.865Z,12.10
2018-06-14T03:56:39.986Z,11.88
2018-06-14T03:57:39.808Z,11.95
2018-06-14T03:58:39.916Z,11.94
2018-06-14T03:59:39.788Z,11.96
2018-06-14T04:00:39.772Z,11.96
2018-06-14T04:01:39.928Z,11.98
2018-06-14T04:02:39.902Z,12.04
2018-06-14T04:03:39.751Z,12.01
2018-06-14T04:04:39.755Z,11.98
2018-06-14T04:05:39.706Z,12.04
2018-06-14T04:06:39.709Z,12.09
2018-06-14T04:07:39.690Z,12.07
2018-06-14T04:08:39.665Z,12.02
2018-06-14T04:09:39.652Z,12.12
2018-06-14T04:10:39.643Z,12.05
2018-06-14T04:11:39.626Z,12.13
2018-06-14T04:12:39.642Z,12.17
2018-06-14T04:13:39.601Z,12.17
2018-06-14T04:14:39.707Z,12.23
2018-06-14T04:15:39.577Z,12.24
2018-06-14T04:16:39.607Z,12.16
2018-06-14T04:17:39.589Z,12.21
2018-06-14T04:18:39.601Z,12.17
2018-06-14T04:19:39.560Z,12.10
2018-06-14T04:20:39.524Z,12.10
2018-06-14T04:21:39.562Z,12.17
2018-06-14T04:22:39.839Z,12.10
2018-06-14T04:23:39.478Z,12.13
2018-06-14T04:24:39.474Z,12.17
2018-06-14T04:25:39.485Z,12.23
2018-06-14T04:26:39.664Z,12.19
2018-06-14T04:27:39.516Z,12.20
2018-06-14T04:28:39.459Z,12.24
2018-06-14T04:29:39.404Z,12.23
2018-06-14T04:30:39.381Z,12.24
2018-06-14T04:31:39.445Z,12.31
2018-06-14T04:32:39.348Z,12.34
2018-06-14T04:33:39.400Z,12.34
2018-06-14T04:34:39.339Z,12.41
2018-06-14T04:35:39.325Z,12.38
2018-06-14T04:36:39.304Z,12.41
2018-06-14T04:37:45.403Z,12.46
2018-06-14T04:38:39.283Z,12.41
2018-06-14T04:39:39.428Z,12.39
2018-06-14T04:40:39.262Z,12.49
2018-06-14T04:41:47.022Z,12.50
2018-06-14T04:42:39.238Z,12.47
2018-06-14T04:43:39.223Z,12.53
2018-06-14T04:44:39.231Z,12.54
2018-06-14T04:45:39.220Z,12.56
2018-06-14T04:46:39.194Z,12.52
2018-06-14T04:47:39.173Z,12.53
2018-06-14T04:48:39.152Z,12.53
2018-06-14T04:49:39.145Z,12.50
2018-06-14T04:50:39.169Z,12.57
2018-06-14T04:51:39.128Z,12.57
2018-06-14T04:52:39.109Z,12.62
2018-06-14T04:53:39.130Z,12.56
2018-06-14T04:54:39.090Z,12.56
2018-06-14T04:55:39.099Z,12.59
2018-06-14T04:56:39.101Z,12.60
2018-06-14T04:57:39.049Z,12.60
2018-06-14T04:58:39.045Z,12.64
2018-06-14T04:59:39.018Z,12.65
2018-06-14T05:00:39.012Z,12.71
2018-06-14T05:01:39.044Z,12.72
2018-06-14T05:02:38.993Z,12.77
2018-06-14T05:03:38.982Z,12.70
2018-06-14T05:04:38.955Z,12.71
2018-06-14T05:05:39.059Z,12.77
2018-06-14T05:06:39.019Z,12.71
2018-06-14T05:07:39.134Z,12.75
2018-06-14T05:08:39.062Z,12.77
2018-06-14T05:09:38.925Z,12.77
2018-06-14T05:10:38.898Z,12.79
2018-06-14T05:11:38.972Z,12.75
2018-06-14T05:12:38.958Z,12.75
2018-06-14T05:13:38.874Z,12.79
2018-06-14T05:14:38.846Z,12.77
2018-06-14T05:17:27.582Z,12.89
2018-06-14T05:18:27.140Z,12.82
2018-06-14T05:19:27.095Z,12.85
2018-06-14T05:20:27.092Z,12.85
2018-06-14T05:21:27.109Z,12.89
2018-06-14T05:22:27.342Z,12.92
2018-06-14T05:23:27.058Z,12.92
2018-06-14T05:24:27.073Z,12.93
2018-06-14T05:25:27.038Z,12.95
2018-06-14T05:26:27.097Z,12.96
2018-06-14T05:27:27.068Z,12.90
2018-06-14T05:28:26.992Z,12.93
2018-06-14T05:29:27.020Z,12.95
2018-06-14T05:30:26.978Z,12.96
2018-06-14T05:31:26.958Z,13.04
2018-06-14T05:32:26.951Z,13.03
2018-06-14T05:33:26.955Z,12.96
2018-06-14T05:34:26.923Z,12.95
2018-06-14T05:35:26.926Z,13.00
2018-06-14T05:36:27.915Z,12.93
2018-06-14T05:37:26.881Z,12.92
2018-06-14T05:38:26.902Z,12.95
2018-06-14T05:39:26.855Z,12.92
2018-06-14T05:40:26.842Z,13.03
2018-06-14T05:41:26.838Z,12.97
2018-06-14T05:42:26.866Z,13.00
2018-06-14T05:43:26.816Z,13.03
2018-06-14T05:44:27.057Z,12.97
2018-06-14T05:45:26.788Z,12.96
2018-06-14T05:46:26.787Z,13.05
2018-06-14T05:47:26.770Z,13.10
2018-06-14T05:48:26.791Z,13.04
2018-06-14T05:49:26.744Z,13.03
2018-06-14T05:50:26.741Z,13.08
2018-06-14T05:51:26.712Z,13.15
2018-06-14T05:52:26.720Z,13.23
2018-06-14T05:53:26.693Z,13.12
2018-06-14T05:54:26.685Z,13.14
2018-06-14T05:55:26.704Z,13.25
2018-06-14T05:56:26.661Z,13.28
2018-06-14T05:57:26.642Z,13.19
2018-06-14T05:58:26.630Z,13.26
2018-06-14T05:59:26.660Z,13.32
2018-06-14T06:00:26.629Z,13.26
2018-06-14T06:01:26.631Z,13.33
2018-06-14T06:02:26.599Z,13.29
2018-06-14T06:03:26.587Z,13.33
2018-06-14T06:04:26.925Z,13.41
2018-06-14T06:05:26.562Z,13.30
2018-06-14T06:06:26.544Z,13.36
2018-06-14T06:07:26.527Z,13.38
2018-06-14T06:09:02.857Z,13.48
2018-06-14T06:09:26.508Z,13.44
2018-06-14T06:10:26.498Z,13.54
2018-06-14T06:11:26.519Z,13.54
2018-06-14T06:12:26.474Z,13.49
2018-06-14T06:13:26.497Z,13.62
2018-06-14T06:14:26.457Z,13.57
2018-06-14T06:15:26.509Z,13.66
2018-06-14T06:16:26.433Z,13.69
2018-06-14T06:17:26.411Z,13.69
2018-06-14T06:18:26.403Z,13.70
2018-06-14T06:19:26.398Z,13.70
2018-06-14T06:20:27.180Z,13.73
2018-06-14T06:21:26.612Z,13.77
2018-06-14T06:22:26.360Z,13.75
2018-06-14T06:23:26.402Z,13.73
2018-06-14T06:24:26.331Z,13.73
2018-06-14T06:25:26.328Z,13.88
2018-06-14T06:26:26.447Z,13.81
2018-06-14T06:27:26.336Z,13.91
2018-06-14T06:28:26.308Z,13.79
2018-06-14T06:29:26.273Z,13.84
2018-06-14T06:30:26.273Z,13.87
2018-06-14T06:31:26.258Z,13.85
2018-06-14T06:32:26.254Z,13.89
2018-06-14T06:33:26.368Z,13.96
2018-06-14T06:34:26.232Z,14.03
2018-06-14T06:35:26.204Z,14.02
2018-06-14T06:36:26.205Z,14.06
2018-06-14T06:37:31.418Z,14.12
2018-06-14T06:38:26.538Z,14.09
2018-06-14T06:39:26.185Z,14.17
2018-06-14T06:40:26.164Z,14.22
2018-06-14T06:41:26.149Z,14.18
2018-06-14T06:42:26.136Z,14.20
2018-06-14T06:43:26.119Z,14.22
2018-06-14T06:44:27.081Z,14.29
2018-06-14T06:45:26.111Z,14.40
2018-06-14T06:46:26.134Z,14.43
2018-06-14T06:47:26.196Z,14.43
2018-06-14T06:48:26.120Z,14.55
2018-06-14T06:49:26.054Z,14.51
2018-06-14T06:50:26.047Z,14.52
2018-06-14T06:51:26.053Z,14.62
2018-06-14T06:52:26.031Z,14.65
2018-06-14T06:53:26.061Z,14.61
2018-06-14T06:54:26.028Z,14.69
2018-06-14T06:55:26.331Z,14.72
2018-06-14T06:56:25.977Z,14.77
2018-06-14T06:57:25.978Z,14.80
2018-06-14T06:58:25.961Z,14.91
2018-06-14T06:59:25.957Z,14.94
2018-06-14T07:00:26.098Z,14.89
2018-06-14T07:01:25.950Z,14.86
2018-06-14T07:02:25.913Z,14.84
2018-06-14T07:03:25.911Z,14.96
2018-06-14T07:04:25.964Z,15.02
2018-06-14T07:05:25.897Z,14.99
2018-06-14T07:06:25.953Z,15.13
2018-06-14T07:07:25.873Z,15.16
2018-06-14T07:08:25.864Z,15.16
2018-06-14T07:09:25.857Z,15.13
2018-06-14T07:10:25.834Z,15.19
2018-06-14T07:11:26.007Z,15.19
2018-06-14T07:12:25.827Z,15.19
2018-06-14T07:13:25.815Z,15.23
2018-06-14T07:14:25.809Z,15.23
2018-06-14T07:15:25.803Z,15.31
2018-06-14T07:16:25.779Z,15.35
2018-06-14T07:17:25.782Z,15.31
2018-06-14T07:21:01.277Z,15.36
2018-06-14T07:21:59.402Z,15.28
2018-06-14T07:26:09.509Z,15.49
2018-06-14T07:26:58.691Z,15.47
2018-06-14T07:27:59.012Z,15.56
2018-06-14T07:30:25.654Z,15.51
2018-06-14T07:30:54.123Z,15.53
2018-06-14T07:31:26.133Z,15.62
2018-06-14T07:32:26.133Z,15.64
2018-06-14T07:33:26.268Z,15.60
2018-06-14T07:34:26.110Z,15.65
2018-06-14T07:35:26.100Z,15.68
2018-06-14T07:36:26.093Z,15.78
2018-06-14T07:37:26.084Z,15.78
2018-06-14T07:38:26.072Z,15.76
2018-06-14T07:39:26.093Z,15.72
2018-06-14T07:40:26.578Z,15.74
2018-06-14T07:41:26.036Z,15.74
2018-06-14T07:42:26.241Z,15.86
2018-06-14T07:43:26.021Z,15.86
2018-06-14T07:44:25.997Z,15.84
2018-06-14T07:45:26.007Z,15.93
2018-06-14T07:46:25.997Z,15.94
2018-06-14T07:53:52.246Z,16.17
2018-06-14T07:54:52.270Z,16.14
2018-06-14T07:55:52.228Z,16.09
2018-06-14T07:56:52.217Z,16.21
2018-06-14T07:57:52.308Z,16.20
2018-06-14T07:58:52.271Z,16.24
2018-06-14T07:59:53.235Z,16.24
2018-06-14T08:00:52.596Z,16.24
2018-06-14T08:01:54.525Z,16.35
2018-06-14T08:02:52.154Z,16.28
2018-06-14T08:13:06.044Z,16.68
2018-06-14T08:13:06.554Z,16.75
2018-06-14T08:15:48.572Z,16.81
2018-06-14T08:16:44.293Z,16.71
2018-06-14T08:17:44.321Z,16.73
2018-06-14T08:18:44.367Z,16.85
2018-06-14T08:21:11.513Z,16.86
2018-06-14T08:26:11.977Z,17.08
2018-06-14T08:27:01.198Z,17.04
2018-06-14T08:28:01.315Z,17.07
2018-06-14T08:30:34.968Z,17.04
2018-06-14T08:31:02.534Z,17.15
2018-06-14T08:31:35.491Z,17.12
2018-06-14T08:32:35.475Z,17.23
2018-06-14T08:33:35.528Z,17.40
2018-06-14T08:34:35.582Z,17.54
2018-06-14T08:35:36.004Z,17.51
2018-06-14T08:36:35.994Z,17.49
2018-06-14T08:37:35.432Z,17.58
2018-06-14T08:38:35.458Z,17.52
2018-06-14T08:39:36.122Z,17.62
2018-06-14T08:40:35.411Z,17.56
2018-06-14T08:44:50.125Z,17.93
2018-06-14T08:47:13.883Z,18.39
2018-06-14T08:50:43.713Z,19.07
2018-06-14T08:51:39.136Z,19.37
2018-06-14T08:52:39.368Z,19.68
2018-06-14T08:53:39.182Z,19.88
2018-06-14T08:54:39.134Z,20.20
2018-06-14T08:57:30.214Z,20.87
2018-06-14T08:58:30.169Z,21.22
2018-06-14T08:59:30.167Z,21.29
2018-06-14T09:00:30.199Z,21.27
2018-06-14T09:03:56.002Z,21.75
2018-06-14T09:04:55.247Z,21.83
2018-06-14T09:05:55.104Z,21.79
2018-06-14T09:06:55.145Z,21.53
2018-06-14T09:07:55.151Z,21.37
2018-06-14T09:08:55.102Z,21.22
2018-06-14T09:09:55.696Z,21.03
2018-06-14T09:10:55.102Z,20.98
2018-06-14T09:11:55.152Z,21.12
2018-06-14T09:17:38.127Z,21.19
2018-06-14T09:18:25.112Z,21.01
2018-06-14T09:22:02.690Z,20.23
2018-06-14T09:22:58.544Z,20.11
2018-06-14T09:23:58.387Z,20.03
2018-06-14T09:24:58.357Z,20.26
2018-06-14T09:25:58.314Z,20.31
2018-06-14T09:26:58.308Z,20.70
2018-06-14T09:27:58.430Z,20.77
2018-06-14T09:28:58.315Z,20.87
2018-06-14T09:29:58.937Z,20.61
2018-06-14T09:30:58.306Z,20.58
2018-06-14T09:31:58.487Z,20.74
2018-06-14T09:32:58.521Z,20.74
2018-06-14T09:33:59.405Z,20.87
2018-06-14T09:34:58.288Z,20.91
2018-06-14T09:35:58.400Z,21.06
2018-06-14T09:36:58.558Z,21.29
2018-06-14T09:37:58.305Z,21.34
2018-06-14T09:38:58.289Z,21.46
2018-06-14T09:39:58.276Z,21.59
2018-06-14T09:40:58.267Z,22.17
2018-06-14T09:41:58.333Z,22.67
2018-06-14T09:42:58.339Z,23.00
2018-06-14T09:43:58.414Z,23.36
2018-06-14T09:44:58.406Z,23.83
2018-06-14T09:45:58.416Z,24.22
2018-06-14T09:46:58.333Z,24.65
2018-06-14T09:47:58.413Z,24.95
2018-06-14T09:48:58.311Z,24.64
2018-06-14T09:49:58.966Z,24.15
2018-06-14T09:50:58.289Z,23.55
2018-06-14T09:51:58.898Z,23.27
2018-06-14T09:52:58.291Z,22.95
2018-06-14T09:53:58.652Z,22.75
2018-06-14T09:54:58.939Z,22.79
2018-06-14T09:55:58.798Z,22.91
2018-06-14T09:56:58.292Z,23.09
2018-06-14T09:57:58.294Z,22.92
2018-06-14T09:58:58.295Z,22.92
2018-06-14T09:59:58.665Z,22.64
2018-06-14T10:00:59.003Z,22.49
2018-06-14T10:02:10.676Z,22.24
2018-06-14T10:02:58.296Z,22.43
2018-06-14T10:03:58.296Z,22.70
2018-06-14T10:04:58.944Z,23.09
2018-06-14T10:05:58.280Z,23.61
2018-06-14T10:06:58.984Z,23.78
2018-06-14T10:07:58.347Z,23.63
2018-06-14T10:08:58.285Z,23.42
2018-06-14T10:09:58.740Z,23.16
2018-06-14T10:10:58.287Z,23.39
2018-06-14T10:11:59.410Z,23.68
2018-06-14T10:12:58.596Z,24.24
2018-06-14T10:13:58.817Z,24.78
2018-06-14T10:14:58.330Z,25.36
2018-06-14T10:15:58.314Z,25.80
2018-06-14T10:16:58.320Z,26.30
2018-06-14T10:17:58.307Z,26.63
2018-06-14T10:18:58.573Z,26.77
2018-06-14T10:19:58.334Z,26.60
2018-06-14T10:20:58.727Z,26.32
2018-06-14T10:21:58.657Z,25.97
2018-06-14T10:22:58.614Z,25.91
2018-06-14T10:23:58.392Z,25.92
2018-06-14T10:24:58.306Z,26.28
2018-06-14T10:25:58.602Z,26.75
2018-06-14T10:26:58.319Z,27.12
2018-06-14T10:27:58.388Z,27.50
2018-06-14T10:28:58.328Z,27.51
2018-06-14T10:29:58.389Z,27.67
2018-06-14T10:30:58.345Z,27.59
2018-06-14T10:31:58.364Z,27.65
2018-06-14T10:32:58.331Z,27.39
2018-06-14T10:33:58.804Z,26.92
2018-06-14T10:34:58.353Z,26.81
2018-06-14T10:35:58.377Z,26.95
2018-06-14T10:36:58.966Z,27.27
2018-06-14T10:38:03.974Z,27.55
2018-06-14T10:38:58.471Z,27.57
2018-06-14T10:39:58.369Z,27.74
2018-06-14T10:40:58.365Z,27.62
2018-06-14T10:41:58.370Z,27.63
2018-06-14T10:42:58.907Z,27.72
2018-06-14T10:43:58.390Z,27.84
2018-06-14T10:44:58.459Z,27.66
2018-06-14T10:45:58.399Z,27.70
2018-06-14T10:46:58.388Z,27.74
2018-06-14T10:47:58.410Z,27.66
2018-06-14T10:48:58.410Z,27.50
2018-06-14T10:49:59.042Z,27.18
2018-06-14T10:50:58.400Z,26.89
2018-06-14T10:51:58.432Z,26.55
2018-06-14T10:52:58.804Z,26.50
2018-06-14T10:53:59.302Z,26.50
2018-06-14T10:54:58.487Z,26.58
2018-06-14T10:55:58.925Z,26.51
2018-06-14T10:56:58.620Z,26.21
2018-06-14T10:57:58.592Z,26.10
2018-06-14T11:01:12.166Z,25.52
2018-06-14T11:02:11.812Z,25.20
2018-06-14T11:03:11.805Z,24.90
2018-06-14T11:04:12.607Z,24.52
2018-06-14T11:05:11.862Z,24.43
2018-06-14T11:06:12.020Z,24.27
2018-06-14T11:07:11.823Z,24.30
2018-06-14T11:08:12.382Z,24.28
2018-06-14T11:09:12.377Z,24.37
2018-06-14T11:10:21.722Z,24.69
2018-06-14T11:11:12.193Z,25.15
2018-06-14T11:12:11.859Z,25.57
2018-06-14T11:13:11.862Z,25.83
2018-06-14T11:14:11.882Z,25.43
2018-06-14T11:15:11.832Z,25.17
2018-06-14T11:16:12.696Z,24.91
2018-06-14T11:17:13.007Z,24.57
2018-06-14T11:18:12.162Z,24.28
2018-06-14T11:21:32.713Z,24.00
2018-06-14T11:22:27.851Z,24.30
2018-06-14T11:25:39.715Z,25.32
2018-06-14T11:26:28.605Z,24.98
2018-06-14T11:27:28.756Z,24.84
2018-06-14T11:28:28.622Z,24.71
2018-06-14T11:29:28.765Z,24.49
2018-06-14T11:30:28.597Z,24.31
2018-06-14T11:31:28.929Z,24.09
2018-06-14T11:32:28.591Z,24.05
2018-06-14T11:33:28.599Z,23.95
2018-06-14T11:34:28.595Z,23.90
2018-06-14T11:35:29.244Z,23.87
2018-06-14T11:36:28.634Z,23.84
2018-06-14T11:37:42.023Z,23.98
2018-06-14T11:40:21.605Z,24.64
2018-06-14T11:41:16.873Z,24.49
2018-06-14T11:42:16.829Z,24.46
2018-06-14T11:43:17.589Z,24.27
2018-06-14T11:44:17.874Z,24.06
2018-06-14T11:45:17.588Z,24.31
2018-06-14T11:46:16.847Z,24.55
2018-06-14T11:47:17.619Z,24.55
2018-06-14T11:48:17.443Z,24.49
2018-06-14T11:49:16.825Z,24.39
2018-06-14T11:50:17.076Z,24.20
2018-06-14T11:51:16.909Z,24.05
2018-06-14T11:52:16.821Z,23.66
2018-06-14T11:53:16.826Z,23.33
2018-06-14T11:54:16.871Z,23.15
2018-06-14T11:55:16.822Z,22.91
2018-06-14T11:56:25.179Z,22.95
2018-06-14T11:57:16.904Z,23.04
2018-06-14T11:58:16.808Z,23.02
2018-06-14T11:59:16.809Z,23.05
2018-06-14T12:00:16.863Z,23.02
2018-06-14T12:01:16.843Z,22.94
2018-06-14T12:02:17.216Z,22.94
2018-06-14T12:03:16.799Z,22.94
2018-06-14T12:04:16.824Z,22.85
2018-06-14T12:05:16.919Z,22.86
2018-06-14T12:06:17.159Z,22.94
2018-06-14T12:07:16.812Z,23.00
2018-06-14T12:08:16.811Z,22.90
2018-06-14T12:09:16.840Z,22.83
2018-06-14T12:10:16.790Z,22.80
2018-06-14T12:11:17.023Z,22.73
2018-06-14T12:12:16.801Z,22.58
2018-06-14T12:14:15.690Z,22.64
2018-06-14T12:14:16.855Z,22.65
2018-06-14T12:17:52.657Z,22.70
2018-06-14T12:18:52.586Z,22.64
2018-06-14T12:19:53.183Z,22.62
2018-06-14T12:20:52.970Z,22.51
2018-06-14T12:21:52.585Z,22.52
2018-06-14T12:22:52.574Z,22.49
2018-06-14T12:23:53.221Z,22.52
2018-06-14T12:24:52.573Z,22.37
2018-06-14T12:25:52.562Z,22.33
2018-06-14T12:26:52.547Z,22.25
2018-06-14T12:28:06.091Z,22.22
2018-06-14T12:28:52.560Z,22.18
2018-06-14T12:29:52.889Z,22.09
2018-06-14T12:30:52.577Z,22.20
2018-06-14T12:31:52.588Z,22.24
2018-06-14T12:32:52.532Z,22.31
2018-06-14T12:33:52.686Z,22.45
2018-06-14T12:34:53.096Z,22.43
2018-06-14T12:35:52.863Z,22.49
2018-06-14T12:36:53.209Z,22.65
2018-06-14T12:37:52.516Z,22.62
2018-06-14T12:38:52.740Z,22.57
2018-06-14T12:39:53.210Z,22.51
2018-06-14T12:40:52.574Z,22.55
2018-06-14T12:41:52.762Z,22.57
2018-06-14T12:42:52.996Z,22.55
2018-06-14T12:43:52.512Z,22.49
2018-06-14T12:44:53.255Z,22.58
2018-06-14T12:45:53.294Z,22.47
2018-06-14T12:46:52.517Z,22.42
2018-06-14T12:47:52.468Z,22.52
2018-06-14T12:48:52.542Z,22.45
2018-06-14T12:49:55.134Z,22.47
2018-06-14T12:50:52.563Z,22.36
2018-06-14T12:51:52.476Z,22.40
2018-06-14T12:52:52.464Z,22.37
2018-06-14T12:53:52.460Z,22.43
2018-06-14T12:54:53.232Z,22.33
2018-06-14T12:55:52.464Z,22.31
2018-06-14T12:56:53.315Z,22.33
2018-06-14T12:57:52.432Z,22.33
2018-06-14T12:58:53.222Z,22.31
2018-06-14T12:59:52.420Z,22.25
2018-06-14T13:00:52.442Z,22.12
2018-06-14T13:01:52.642Z,22.17
2018-06-14T13:02:53.083Z,22.09
2018-06-14T13:03:53.196Z,21.91
2018-06-14T13:04:53.198Z,22.03
2018-06-14T13:05:53.165Z,22.07
2018-06-14T13:06:53.062Z,22.03
2018-06-14T13:07:53.954Z,22.10
2018-06-14T13:08:53.293Z,22.14
2018-06-14T13:09:53.049Z,22.20
2018-06-14T13:10:53.040Z,22.21
2018-06-14T13:11:53.093Z,22.14
2018-06-14T13:12:52.967Z,22.15
2018-06-14T13:13:53.875Z,22.09
2018-06-14T13:14:53.561Z,22.21
2018-06-14T13:15:53.264Z,22.12
2018-06-14T13:16:53.076Z,22.24
2018-06-14T13:17:53.694Z,22.20
2018-06-14T13:18:53.166Z,22.21
2018-06-14T13:19:53.028Z,21.98
2018-06-14T13:20:52.722Z,21.96
2018-06-14T13:21:52.970Z,21.84
2018-06-14T13:22:54.014Z,21.72
2018-06-14T13:23:53.127Z,21.79
2018-06-14T13:24:53.385Z,21.64
2018-06-14T13:25:53.135Z,21.69
2018-06-14T13:26:52.900Z,21.69
2018-06-14T13:27:53.934Z,21.69
2018-06-14T13:28:53.110Z,21.64
2018-06-14T13:29:53.032Z,21.64
2018-06-14T13:30:53.179Z,21.68
2018-06-14T13:31:52.995Z,21.62
2018-06-14T13:32:56.750Z,21.52
2018-06-14T13:33:52.802Z,21.49
2018-06-14T13:34:52.676Z,21.49
2018-06-14T13:35:53.744Z,21.49
2018-06-14T13:36:52.964Z,21.24
2018-06-14T13:37:53.030Z,21.34
2018-06-14T13:38:52.641Z,21.34
2018-06-14T13:39:52.749Z,21.27
2018-06-14T13:40:52.933Z,21.21
2018-06-14T13:41:53.011Z,21.27
2018-06-14T13:42:52.999Z,21.27
2018-06-14T13:43:52.894Z,21.21
2018-06-14T13:44:53.541Z,21.35
2018-06-14T13:45:53.413Z,21.43
2018-06-14T13:46:53.507Z,21.37
2018-06-14T13:47:52.888Z,21.43
2018-06-14T13:48:52.995Z,21.40
2018-06-14T13:49:52.846Z,21.52
2018-06-14T13:50:52.910Z,21.49
2018-06-14T13:51:52.488Z,21.61